Time;durP1;ratioP1;P1;durP2;ratioP2;P2;SDS_P1;SDS_P2;PMS_P1;PMS_P2;Temp;Humidity;BMP_temperature;BMP_pressure;BME280_temperature;BME280_humidity;BME280_pressure;Samples;Min_cycle;Max_cycle;Signal;HPM_P1;HPM_P2
2023/01/13 00:00:18;;;;;;;11.95;2.65;;;;;;;;;;5036005;28;20127;-74
2023/01/13 00:02:44;;;;;;;17.63;2.53;;;;;;;;;;5035525;28;20046;-74
2023/01/13 00:05:10;;;;;;;14.02;2.53;;;;;;;;;;5035901;28;20592;-73
2023/01/13 00:07:38;;;;;;;11.38;2.17;;;;;;;;;;5035640;28;20037;-74
2023/01/13 00:10:06;;;;;;;11.80;1.98;;;;;;;;;;5035582;28;20042;-73
2023/01/13 00:12:32;;;;;;;12.82;2.00;;;;;;;;;;5035613;28;20080;-74
2023/01/13 00:14:58;;;;;;;15.68;2.58;;;;;;;;;;5035115;28;20080;-74
2023/01/13 00:17:24;;;;;;;6.93;1.42;;;;;;;;;;5034122;28;20456;-74
2023/01/13 00:19:50;;;;;;;13.98;1.98;;;;;;;;;;5035659;28;20041;-73
2023/01/13 00:22:18;;;;;;;10.80;2.60;;;;;;;;;;5035804;28;20049;-74
2023/01/13 00:24:44;;;;;;;13.48;2.30;;;;;;;;;;5035280;28;20147;-74
2023/01/13 00:27:10;;;;;;;14.13;1.90;;;;;;;;;;5034772;28;20038;-74
2023/01/13 00:29:36;;;;;;;12.98;1.98;;;;;;;;;;5034900;28;20042;-74
2023/01/13 00:32:02;;;;;;;9.60;1.73;;;;;;;;;;5034809;28;20080;-73
2023/01/13 00:34:28;;;;;;;11.73;2.08;;;;;;;;;;5034827;28;20121;-74
2023/01/13 00:36:56;;;;;;;11.23;2.10;;;;;;;;;;5034822;28;20365;-73
2023/01/13 00:39:26;;;;;;;11.38;2.22;;;;;;;;;;5034361;28;20037;-74
2023/01/13 00:44:36;;;;;;;7.30;1.85;;;;;;;;;;5034187;28;20541;-74
2023/01/13 00:47:02;;;;;;;14.15;2.55;;;;;;;;;;5034685;28;20064;-74
2023/01/13 00:49:29;;;;;;;11.70;1.98;;;;;;;;;;5034699;28;20099;-74
2023/01/13 00:52:00;;;;;;;10.45;1.70;;;;;;;;;;5034266;28;20132;-73
2023/01/13 00:54:26;;;;;;;12.75;1.60;;;;;;;;;;5034698;28;20504;-74
2023/01/13 00:56:52;;;;;;;10.07;1.88;;;;;;;;;;5034838;28;20042;-74
2023/01/13 00:59:18;;;;;;;10.10;1.75;;;;;;;;;;5034570;28;20052;-73
2023/01/13 01:01:44;;;;;;;11.15;1.85;;;;;;;;;;5034212;28;20045;-74
2023/01/13 01:04:12;;;;;;;9.05;1.48;;;;;;;;;;5034346;28;20060;-74
2023/01/13 01:06:38;;;;;;;8.00;1.30;;;;;;;;;;5034180;28;20496;-74
2023/01/13 01:09:07;;;;;;;10.18;2.03;;;;;;;;;;5034343;28;20099;-74
2023/01/13 01:11:33;;;;;;;9.93;2.05;;;;;;;;;;5034367;28;20045;-74
2023/01/13 01:14:02;;;;;;;9.70;2.13;;;;;;;;;;5034396;28;20400;-74
2023/01/13 01:16:29;;;;;;;11.73;1.55;;;;;;;;;;5034376;28;20041;-73
2023/01/13 01:18:59;;;;;;;9.68;1.55;;;;;;;;;;5034320;28;20029;-74
2023/01/13 01:21:25;;;;;;;12.00;1.80;;;;;;;;;;5034306;28;20059;-74
2023/01/13 01:23:52;;;;;;;14.18;2.65;;;;;;;;;;5034192;28;20065;-74
2023/01/13 01:26:19;;;;;;;11.93;2.00;;;;;;;;;;5037485;28;20037;-74
2023/01/13 01:28:45;;;;;;;14.45;2.25;;;;;;;;;;5038510;28;20120;-73
2023/01/13 01:31:23;;;;;;;13.80;2.05;;;;;;;;;;5038202;28;20045;-74
2023/01/13 01:33:50;;;;;;;14.38;2.00;;;;;;;;;;5038544;28;20496;-74
2023/01/13 01:36:17;;;;;;;15.57;1.80;;;;;;;;;;5038543;28;20061;-74
2023/01/13 01:38:44;;;;;;;9.95;1.95;;;;;;;;;;5038211;28;20092;-73
2023/01/13 01:41:13;;;;;;;12.52;1.77;;;;;;;;;;5038641;28;20130;-73
2023/01/13 01:44:04;;;;;;;11.88;1.67;;;;;;;;;;5038894;28;20053;-73
2023/01/13 01:46:35;;;;;;;9.27;1.40;;;;;;;;;;5038001;28;20582;-73
2023/01/13 01:49:21;;;;;;;12.15;1.92;;;;;;;;;;5037934;28;20041;-74
2023/01/13 01:51:47;;;;;;;12.32;1.73;;;;;;;;;;5037258;28;20376;-73
2023/01/13 01:54:17;;;;;;;10.88;1.60;;;;;;;;;;5037711;28;20049;-73
2023/01/13 01:56:53;;;;;;;16.83;2.10;;;;;;;;;;5038089;28;20045;-73
2023/01/13 01:59:19;;;;;;;11.02;1.63;;;;;;;;;;5038155;28;20037;-74
2023/01/13 02:01:45;;;;;;;12.55;2.00;;;;;;;;;;5037941;28;20045;-74
2023/01/13 02:04:18;;;;;;;10.57;2.08;;;;;;;;;;5038001;28;20038;-74
2023/01/13 02:06:45;;;;;;;9.32;2.00;;;;;;;;;;5037560;28;20038;-74
2023/01/13 02:09:12;;;;;;;11.23;1.98;;;;;;;;;;5037378;28;20048;-73
2023/01/13 02:14:24;;;;;;;7.72;1.65;;;;;;;;;;5037220;28;20048;-73
2023/01/13 02:16:54;;;;;;;8.68;2.03;;;;;;;;;;5037673;28;20041;-74
2023/01/13 02:19:20;;;;;;;11.82;1.92;;;;;;;;;;5037733;28;20037;-73
2023/01/13 02:22:22;;;;;;;13.35;1.83;;;;;;;;;;5037897;28;20045;-73
2023/01/13 02:25:06;;;;;;;9.77;1.88;;;;;;;;;;5037678;28;20057;-73
2023/01/13 02:27:51;;;;;;;5.50;1.58;;;;;;;;;;5036933;28;20041;-74
2023/01/13 02:33:23;;;;;;;12.35;3.03;;;;;;;;;;5036463;28;20095;-74
2023/01/13 02:35:57;;;;;;;7.72;1.77;;;;;;;;;;5037089;28;20046;-74
2023/01/13 02:38:26;;;;;;;9.60;1.83;;;;;;;;;;5036572;28;20045;-74
2023/01/13 02:40:55;;;;;;;11.55;1.80;;;;;;;;;;5037225;28;20044;-74
2023/01/13 02:46:23;;;;;;;9.23;2.30;;;;;;;;;;5036383;28;20099;-74
2023/01/13 02:48:51;;;;;;;6.55;1.73;;;;;;;;;;5036836;28;20048;-73
2023/01/13 02:51:19;;;;;;;9.38;2.08;;;;;;;;;;5036812;28;20504;-73
2023/01/13 02:53:50;;;;;;;6.28;1.50;;;;;;;;;;5036674;28;20052;-74
2023/01/13 02:56:17;;;;;;;8.68;1.80;;;;;;;;;;5037011;28;20053;-73
2023/01/13 02:58:45;;;;;;;10.45;2.25;;;;;;;;;;5036346;28;20040;-74
2023/01/13 03:01:11;;;;;;;15.60;2.85;;;;;;;;;;5036867;28;20099;-74
2023/01/13 03:03:37;;;;;;;15.18;2.20;;;;;;;;;;5036874;28;20120;-73
2023/01/13 03:06:09;;;;;;;8.35;1.67;;;;;;;;;;5037031;28;20051;-74
2023/01/13 03:08:38;;;;;;;12.70;2.35;;;;;;;;;;5036407;28;20088;-74
2023/01/13 03:11:14;;;;;;;12.85;2.58;;;;;;;;;;5036418;28;20045;-73
2023/01/13 03:13:52;;;;;;;11.82;1.83;;;;;;;;;;5036186;28;20045;-73
2023/01/13 03:16:21;;;;;;;8.30;2.22;;;;;;;;;;5036335;28;20050;-74
2023/01/13 03:18:55;;;;;;;8.57;1.92;;;;;;;;;;5036270;28;20064;-73
2023/01/13 03:21:26;;;;;;;10.85;2.03;;;;;;;;;;5036509;28;20504;-74
2023/01/13 03:23:58;;;;;;;7.63;1.70;;;;;;;;;;5035878;28;20498;-74
2023/01/13 03:26:30;;;;;;;11.70;2.17;;;;;;;;;;5036105;28;20436;-73
2023/01/13 03:28:59;;;;;;;7.53;1.85;;;;;;;;;;5036517;28;20041;-74
2023/01/13 03:31:31;;;;;;;10.48;1.98;;;;;;;;;;5036315;28;20033;-73
2023/01/13 03:34:03;;;;;;;12.95;2.53;;;;;;;;;;5036418;28;20100;-74
2023/01/13 03:36:30;;;;;;;11.20;2.17;;;;;;;;;;5036493;28;20045;-73
2023/01/13 03:38:58;;;;;;;10.02;2.13;;;;;;;;;;5036016;28;20527;-73
2023/01/13 03:41:27;;;;;;;9.00;2.13;;;;;;;;;;5035846;28;20096;-73
2023/01/13 03:46:45;;;;;;;9.70;2.30;;;;;;;;;;5035486;28;20125;-73
2023/01/13 03:49:13;;;;;;;11.02;1.88;;;;;;;;;;5034726;28;20049;-74
2023/01/13 03:51:40;;;;;;;9.10;2.40;;;;;;;;;;5035584;28;20042;-74
2023/01/13 03:54:08;;;;;;;10.63;2.60;;;;;;;;;;5035618;28;20053;-74
2023/01/13 03:56:38;;;;;;;10.13;2.65;;;;;;;;;;5035532;28;20064;-74
2023/01/13 03:59:05;;;;;;;8.75;2.05;;;;;;;;;;5035472;28;20075;-74
2023/01/13 04:01:35;;;;;;;14.63;2.75;;;;;;;;;;5035439;28;20037;-74
2023/01/13 04:04:04;;;;;;;12.27;2.10;;;;;;;;;;5035607;28;20049;-73
2023/01/13 04:06:37;;;;;;;8.23;1.90;;;;;;;;;;5035642;28;20065;-74
2023/01/13 04:09:14;;;;;;;10.63;2.08;;;;;;;;;;5035520;28;20045;-74
2023/01/13 04:11:46;;;;;;;9.13;2.10;;;;;;;;;;5035826;28;20043;-74
2023/01/13 04:14:13;;;;;;;11.57;2.05;;;;;;;;;;5035586;28;20128;-73
2023/01/13 04:16:39;;;;;;;10.02;1.88;;;;;;;;;;5035448;28;20119;-74
2023/01/13 04:19:06;;;;;;;12.82;2.53;;;;;;;;;;5035466;28;20045;-74
2023/01/13 04:21:33;;;;;;;8.10;2.08;;;;;;;;;;5035623;28;20076;-74
2023/01/13 04:24:00;;;;;;;13.48;2.28;;;;;;;;;;5034920;28;20137;-73
2023/01/13 04:26:26;;;;;;;11.13;2.17;;;;;;;;;;5035019;28;20041;-74
2023/01/13 04:28:53;;;;;;;13.48;2.08;;;;;;;;;;5034862;28;20535;-73
2023/01/13 04:31:20;;;;;;;11.40;1.92;;;;;;;;;;5034604;28;20048;-74
2023/01/13 04:33:46;;;;;;;10.10;1.58;;;;;;;;;;5034818;28;20084;-74
2023/01/13 04:36:12;;;;;;;8.30;2.10;;;;;;;;;;5035145;28;20044;-74
2023/01/13 04:38:38;;;;;;;11.35;2.30;;;;;;;;;;5034660;28;20037;-74
2023/01/13 04:41:04;;;;;;;10.27;1.83;;;;;;;;;;5034828;28;20038;-74
2023/01/13 04:43:30;;;;;;;6.38;2.08;;;;;;;;;;5035117;28;20107;-74
2023/01/13 04:45:57;;;;;;;10.43;2.10;;;;;;;;;;5034433;28;20040;-74
2023/01/13 04:48:23;;;;;;;4.70;1.35;;;;;;;;;;5034837;28;20041;-74
2023/01/13 04:50:49;;;;;;;11.13;2.50;;;;;;;;;;5034397;28;20119;-73
2023/01/13 04:53:15;;;;;;;6.53;1.80;;;;;;;;;;5034741;28;20077;-73
2023/01/13 04:55:43;;;;;;;12.77;2.28;;;;;;;;;;5034690;28;20132;-73
2023/01/13 04:58:10;;;;;;;8.18;2.30;;;;;;;;;;5034545;28;20045;-73
2023/01/13 05:00:36;;;;;;;5.90;1.55;;;;;;;;;;5034299;28;20558;-74
2023/01/13 05:03:03;;;;;;;10.00;1.90;;;;;;;;;;5034372;28;20511;-73
2023/01/13 05:05:29;;;;;;;13.93;1.77;;;;;;;;;;5034217;28;20124;-73
2023/01/13 05:07:56;;;;;;;11.30;2.20;;;;;;;;;;5034308;28;20099;-73
2023/01/13 05:10:22;;;;;;;8.10;2.20;;;;;;;;;;5034429;28;20067;-73
2023/01/13 05:18:18;;;;;;;9.18;1.60;;;;;;;;;;5033850;28;20045;-73
2023/01/13 05:20:45;;;;;;;10.75;2.35;;;;;;;;;;5034368;28;20149;-74
2023/01/13 05:25:55;;;;;;;11.90;1.83;;;;;;;;;;5034567;28;20107;-74
2023/01/13 05:28:22;;;;;;;8.20;1.88;;;;;;;;;;5034268;28;20038;-74
2023/01/13 05:30:48;;;;;;;9.60;1.83;;;;;;;;;;5034018;28;20065;-73
2023/01/13 05:33:15;;;;;;;8.15;1.88;;;;;;;;;;5034493;28;20056;-72
2023/01/13 05:35:43;;;;;;;6.28;2.20;;;;;;;;;;5033861;28;20053;-73
2023/01/13 05:38:09;;;;;;;8.77;1.60;;;;;;;;;;5033971;28;20484;-73
2023/01/13 05:43:26;;;;;;;11.63;1.40;;;;;;;;;;5033481;28;20098;-72
2023/01/13 05:45:59;;;;;;;5.28;1.70;;;;;;;;;;5034368;28;20045;-73
2023/01/13 05:48:32;;;;;;;4.38;1.27;;;;;;;;;;5034018;28;20041;-73
2023/01/13 05:50:59;;;;;;;9.15;1.48;;;;;;;;;;5033764;28;20072;-72
2023/01/13 05:53:26;;;;;;;11.45;1.80;;;;;;;;;;5033724;28;20045;-73
2023/01/13 05:55:52;;;;;;;8.60;2.05;;;;;;;;;;5033643;28;20127;-72
2023/01/13 05:58:19;;;;;;;6.18;1.63;;;;;;;;;;5032632;28;20407;-73
2023/01/13 06:00:46;;;;;;;9.20;1.52;;;;;;;;;;5033915;28;20493;-73
2023/01/13 06:03:13;;;;;;;6.85;1.80;;;;;;;;;;5034294;28;20056;-72
2023/01/13 06:05:39;;;;;;;9.38;1.77;;;;;;;;;;5033608;28;20037;-73
2023/01/13 06:08:06;;;;;;;6.50;1.48;;;;;;;;;;5033908;28;20068;-73
2023/01/13 06:10:33;;;;;;;9.45;2.10;;;;;;;;;;5033611;28;20091;-72
2023/01/13 06:12:59;;;;;;;7.25;1.98;;;;;;;;;;5036608;28;20049;-73
2023/01/13 06:15:26;;;;;;;8.70;1.75;;;;;;;;;;5037443;28;20095;-73
2023/01/13 06:17:52;;;;;;;4.35;1.50;;;;;;;;;;5037080;28;20107;-72
2023/01/13 06:20:18;;;;;;;6.65;1.92;;;;;;;;;;5037066;28;20043;-70
2023/01/13 06:22:49;;;;;;;8.15;1.63;;;;;;;;;;5037381;28;20053;-70
2023/01/13 06:25:15;;;;;;;;;;;;;;;;;;5037506;28;20046;-70
2023/01/13 06:27:41;;;;;;;5.70;1.88;;;;;;;;;;5036918;28;20252;-70
2023/01/13 06:30:08;;;;;;;4.15;1.30;;;;;;;;;;5043319;28;20049;-70
2023/01/13 06:32:37;;;;;;;6.50;1.38;;;;;;;;;;5047123;28;20076;-70
2023/01/13 06:35:07;;;;;;;4.32;1.13;;;;;;;;;;5035501;28;20512;-70
2023/01/13 06:37:34;;;;;;;4.68;1.27;;;;;;;;;;5039980;28;20037;-70
2023/01/13 06:40:01;;;;;;;7.65;1.77;;;;;;;;;;5041058;28;20075;-70
2023/01/13 06:45:12;;;;;;;8.93;2.17;;;;;;;;;;5037977;28;20044;-70
2023/01/13 06:47:38;;;;;;;5.95;2.15;;;;;;;;;;5044041;28;20098;-70
2023/01/13 06:50:05;;;;;;;6.20;1.83;;;;;;;;;;5033171;28;20041;-70
2023/01/13 06:52:31;;;;;;;6.22;2.30;;;;;;;;;;5025319;28;20053;-70
2023/01/13 06:54:57;;;;;;;7.90;2.20;;;;;;;;;;5026943;28;20503;-70
2023/01/13 06:57:23;;;;;;;7.15;2.30;;;;;;;;;;5035071;28;20038;-70
2023/01/13 06:59:50;;;;;;;6.82;2.28;;;;;;;;;;5025850;28;20076;-70
2023/01/13 07:02:16;;;;;;;6.97;2.00;;;;;;;;;;5028405;28;20057;-70
2023/01/13 07:04:43;;;;;;;7.53;2.17;;;;;;;;;;5034208;28;20484;-69
2023/01/13 07:07:11;;;;;;;6.78;2.47;;;;;;;;;;5054730;28;20044;-74
2023/01/13 07:09:37;;;;;;;7.45;2.38;;;;;;;;;;5047879;28;20127;-73
2023/01/13 07:12:03;;;;;;;7.10;2.05;;;;;;;;;;5040346;28;20068;-71
2023/01/13 07:17:14;;;;;;;5.38;1.77;;;;;;;;;;5028763;28;20041;-73
2023/01/13 07:19:40;;;;;;;4.95;1.90;;;;;;;;;;5034294;28;20053;-73
2023/01/13 07:22:06;;;;;;;7.97;2.13;;;;;;;;;;5036072;28;20412;-73
2023/01/13 07:24:32;;;;;;;4.90;2.00;;;;;;;;;;5044566;28;20516;-73
2023/01/13 07:26:58;;;;;;;5.78;1.77;;;;;;;;;;5036622;28;20191;-72
2023/01/13 07:29:25;;;;;;;4.30;1.58;;;;;;;;;;5053659;28;20044;-74
2023/01/13 07:31:51;;;;;;;8.13;3.65;;;;;;;;;;5042785;28;20049;-73
2023/01/13 07:34:17;;;;;;;4.47;1.92;;;;;;;;;;5042634;28;20056;-73
2023/01/13 07:36:43;;;;;;;2.35;1.70;;;;;;;;;;5035331;28;20041;-73
2023/01/13 07:39:09;;;;;;;5.22;1.60;;;;;;;;;;5047962;28;20051;-73
2023/01/13 07:44:20;;;;;;;2.20;1.35;;;;;;;;;;5043406;28;20118;-71
2023/01/13 07:46:46;;;;;;;4.40;1.60;;;;;;;;;;5053293;28;20040;-71
2023/01/13 07:49:13;;;;;;;3.00;1.38;;;;;;;;;;5049109;28;20065;-72
2023/01/13 07:51:39;;;;;;;2.58;1.40;;;;;;;;;;5034535;28;20041;-72
2023/01/13 07:54:05;;;;;;;1.85;1.20;;;;;;;;;;5034514;28;20045;-70
2023/01/13 07:56:32;;;;;;;1.83;0.90;;;;;;;;;;5042178;28;20049;-71
2023/01/13 07:58:58;;;;;;;2.05;1.17;;;;;;;;;;5054932;28;20120;-72
2023/01/13 08:01:26;;;;;;;2.90;1.20;;;;;;;;;;5038908;28;20495;-71
2023/01/13 08:03:52;;;;;;;1.92;1.23;;;;;;;;;;5047540;28;20048;-70
2023/01/13 08:06:18;;;;;;;3.13;0.80;;;;;;;;;;5033495;28;20037;-70
2023/01/13 08:08:45;;;;;;;3.72;1.60;;;;;;;;;;5034648;28;20110;-70
2023/01/13 08:11:11;;;;;;;2.60;1.00;;;;;;;;;;5034546;28;20064;-71
2023/01/13 08:13:37;;;;;;;1.05;0.90;;;;;;;;;;5034270;28;20049;-70
2023/01/13 08:16:12;;;;;;;2.80;1.17;;;;;;;;;;5034416;28;20527;-70
2023/01/13 08:18:38;;;;;;;2.35;0.93;;;;;;;;;;5033809;28;20113;-70
2023/01/13 08:21:06;;;;;;;1.85;0.80;;;;;;;;;;5034309;28;20041;-70
2023/01/13 08:23:33;;;;;;;1.23;0.70;;;;;;;;;;5033997;28;20071;-71
2023/01/13 08:26:02;;;;;;;1.73;0.60;;;;;;;;;;5034425;28;20041;-70
2023/01/13 08:28:29;;;;;;;1.55;0.80;;;;;;;;;;5033668;28;20041;-70
2023/01/13 08:30:58;;;;;;;3.55;0.80;;;;;;;;;;5034442;28;20044;-71
2023/01/13 08:33:25;;;;;;;2.55;1.13;;;;;;;;;;5033499;28;20041;-71
2023/01/13 08:35:52;;;;;;;1.23;0.77;;;;;;;;;;5032990;28;20042;-71
2023/01/13 08:38:18;;;;;;;3.30;0.80;;;;;;;;;;5033572;28;20033;-70
2023/01/13 08:40:44;;;;;;;1.42;0.80;;;;;;;;;;5033509;28;20477;-71
2023/01/13 08:43:10;;;;;;;2.90;0.90;;;;;;;;;;5034306;28;20047;-71
2023/01/13 08:45:36;;;;;;;3.58;0.80;;;;;;;;;;5033303;28;20114;-71
2023/01/13 08:48:03;;;;;;;2.47;1.00;;;;;;;;;;5033492;28;20041;-71
2023/01/13 08:50:29;;;;;;;3.15;1.00;;;;;;;;;;5033878;28;20106;-71
2023/01/13 08:52:55;;;;;;;3.83;1.35;;;;;;;;;;5033048;28;20056;-70
2023/01/13 08:55:21;;;;;;;3.80;2.10;;;;;;;;;;5033683;28;20041;-70
2023/01/13 08:57:48;;;;;;;6.68;3.72;;;;;;;;;;5034004;28;20040;-70
2023/01/13 09:00:15;;;;;;;5.63;2.28;;;;;;;;;;5046962;28;20048;-70
2023/01/13 09:02:42;;;;;;;4.35;1.42;;;;;;;;;;5040155;28;20076;-71
2023/01/13 09:05:08;;;;;;;3.50;1.80;;;;;;;;;;5032494;28;20041;-70
2023/01/13 09:07:35;;;;;;;3.28;1.80;;;;;;;;;;5047069;28;20068;-70
2023/01/13 09:10:01;;;;;;;5.43;3.05;;;;;;;;;;5039030;28;20045;-70
2023/01/13 09:15:12;;;;;;;4.80;2.25;;;;;;;;;;5018987;28;20072;-71
2023/01/13 09:17:39;;;;;;;5.03;2.10;;;;;;;;;;5036463;28;20041;-71
2023/01/13 09:20:05;;;;;;;2.17;1.02;;;;;;;;;;5050879;28;20037;-70
2023/01/13 09:22:34;;;;;;;1.85;1.20;;;;;;;;;;5033525;28;20147;-70
2023/01/13 09:25:00;;;;;;;5.63;2.95;;;;;;;;;;5029829;28;21436;-69
2023/01/13 09:27:26;;;;;;;1.40;1.00;;;;;;;;;;5043042;28;20070;-70
2023/01/13 09:29:52;;;;;;;2.15;1.00;;;;;;;;;;5043532;28;20045;-70
2023/01/13 09:32:18;;;;;;;3.00;1.25;;;;;;;;;;5033216;28;20049;-69
2023/01/13 09:35:00;;;;;;;2.47;1.75;;;;;;;;;;5047019;28;20045;-69
2023/01/13 09:37:27;;;;;;;3.88;1.92;;;;;;;;;;5053633;28;20069;-69
2023/01/13 09:39:53;;;;;;;2.78;1.25;;;;;;;;;;5042390;28;20547;-70
2023/01/13 09:45:25;;;;;;;2.33;1.60;;;;;;;;;;5031963;28;20063;-70
2023/01/13 09:47:51;;;;;;;2.55;1.60;;;;;;;;;;5047738;28;20048;-71
2023/01/13 09:50:24;;;;;;;3.92;1.60;;;;;;;;;;5040414;28;20129;-70
2023/01/13 09:52:51;;;;;;;1.30;0.90;;;;;;;;;;5044984;28;20099;-69
2023/01/13 09:55:29;;;;;;;3.15;1.95;;;;;;;;;;5056991;28;20072;-70
2023/01/13 09:57:55;;;;;;;1.65;0.50;;;;;;;;;;5051096;28;20041;-72
2023/01/13 10:00:26;;;;;;;3.03;1.40;;;;;;;;;;5042267;28;20041;-72
2023/01/13 10:02:52;;;;;;;;;;;;;;;;;;5036236;28;20049;-71
2023/01/13 10:05:18;;;;;;;2.03;1.08;;;;;;;;;;5037527;28;20348;-71
2023/01/13 10:07:56;;;;;;;1.63;1.20;;;;;;;;;;5035341;28;20046;-71
2023/01/13 10:10:46;;;;;;;3.15;2.28;;;;;;;;;;5034769;28;20069;-71
2023/01/13 10:13:18;;;;;;;4.40;2.10;;;;;;;;;;5029463;28;20041;-71
2023/01/13 10:16:03;;;;;;;1.02;0.70;;;;;;;;;;5035505;28;20373;-71
2023/01/13 10:18:29;;;;;;;0.95;0.82;;;;;;;;;;5015958;28;20073;-71
2023/01/13 10:20:58;;;;;;;2.22;1.40;;;;;;;;;;5032353;28;20037;-71
2023/01/13 10:24:03;;;;;;;2.70;1.98;;;;;;;;;;5036039;28;20045;-72
2023/01/13 10:26:37;;;;;;;0.50;0.40;;;;;;;;;;4994240;28;20117;-72
2023/01/13 10:29:03;;;;;;;1.05;0.63;;;;;;;;;;4995056;28;20121;-72
2023/01/13 10:31:29;;;;;;;2.97;1.00;;;;;;;;;;5014858;28;20044;-72
2023/01/13 10:33:59;;;;;;;1.85;0.82;;;;;;;;;;5044814;28;20048;-71
2023/01/13 10:36:25;;;;;;;1.98;1.10;;;;;;;;;;5040305;28;20124;-71
2023/01/13 10:38:51;;;;;;;1.38;0.85;;;;;;;;;;5043088;28;20040;-72
2023/01/13 10:41:20;;;;;;;4.68;0.85;;;;;;;;;;5046640;28;20125;-72
2023/01/13 10:43:52;;;;;;;3.40;0.85;;;;;;;;;;5029238;28;20404;-73
2023/01/13 10:46:19;;;;;;;2.60;0.60;;;;;;;;;;5034479;28;20041;-72
2023/01/13 10:48:54;;;;;;;1.27;1.00;;;;;;;;;;5047050;28;20040;-71
2023/01/13 10:51:22;;;;;;;2.58;0.80;;;;;;;;;;5033735;28;20045;-71
2023/01/13 10:53:53;;;;;;;1.50;0.80;;;;;;;;;;5040317;28;20053;-70
2023/01/13 10:56:20;;;;;;;0.60;0.60;;;;;;;;;;5035503;28;20068;-70
2023/01/13 10:58:46;;;;;;;1.50;0.70;;;;;;;;;;5034731;28;20049;-70
2023/01/13 11:01:26;;;;;;;1.10;0.75;;;;;;;;;;5034322;28;20050;-70
2023/01/13 11:03:55;;;;;;;0.60;0.47;;;;;;;;;;5034863;28;20045;-70
2023/01/13 11:06:27;;;;;;;1.35;0.80;;;;;;;;;;5036226;28;20120;-70
2023/01/13 11:08:56;;;;;;;0.60;0.60;;;;;;;;;;5035542;28;20034;-70
2023/01/13 11:11:34;;;;;;;2.60;0.60;;;;;;;;;;5036301;28;20034;-70
2023/01/13 11:16:50;;;;;;;0.60;0.60;;;;;;;;;;5034664;28;20047;-70
2023/01/13 11:19:18;;;;;;;0.63;0.63;;;;;;;;;;5036055;28;20041;-70
2023/01/13 11:22:03;;;;;;;1.02;0.80;;;;;;;;;;5039499;28;20118;-70
2023/01/13 11:24:29;;;;;;;1.63;1.10;;;;;;;;;;5054680;28;20064;-70
2023/01/13 11:27:15;;;;;;;0.85;0.40;;;;;;;;;;5055725;28;20087;-70
2023/01/13 11:29:53;;;;;;;1.10;0.90;;;;;;;;;;5050708;28;20106;-70
2023/01/13 11:32:21;;;;;;;1.17;1.08;;;;;;;;;;5055153;28;20044;-70
2023/01/13 11:34:51;;;;;;;1.80;0.52;;;;;;;;;;5054546;28;20060;-70
2023/01/13 11:37:28;;;;;;;1.48;0.90;;;;;;;;;;5048502;28;20029;-70
2023/01/13 11:40:02;;;;;;;2.45;2.15;;;;;;;;;;5037194;28;20117;-70
2023/01/13 11:42:48;;;;;;;0.60;0.60;;;;;;;;;;5046955;28;20116;-70
2023/01/13 11:45:18;;;;;;;4.25;0.75;;;;;;;;;;5046768;28;20111;-69
2023/01/13 11:47:46;;;;;;;1.63;0.82;;;;;;;;;;5041121;28;20041;-70
2023/01/13 11:50:33;;;;;;;4.22;0.60;;;;;;;;;;5024596;28;20068;-70
2023/01/13 11:52:59;;;;;;;2.15;0.80;;;;;;;;;;5037540;28;20466;-70
2023/01/13 11:55:38;;;;;;;0.90;0.70;;;;;;;;;;5047451;28;20049;-70
2023/01/13 11:58:10;;;;;;;1.38;0.60;;;;;;;;;;5046940;28;20068;-70
2023/01/13 12:00:42;;;;;;;1.30;0.70;;;;;;;;;;5042208;28;20037;-70
2023/01/13 12:03:08;;;;;;;2.70;0.70;;;;;;;;;;5045845;28;20065;-69
2023/01/13 12:05:36;;;;;;;1.65;0.93;;;;;;;;;;5037503;28;20103;-70
2023/01/13 12:08:24;;;;;;;1.33;0.75;;;;;;;;;;5035375;28;20037;-70
2023/01/13 12:11:01;;;;;;;1.52;0.70;;;;;;;;;;5032527;28;20041;-70
2023/01/13 12:13:46;;;;;;;1.27;1.10;;;;;;;;;;5034774;28;20052;-70
2023/01/13 12:16:41;;;;;;;1.83;1.10;;;;;;;;;;5045360;28;20056;-70
2023/01/13 12:19:16;;;;;;;1.13;1.02;;;;;;;;;;5039520;28;20041;-70
2023/01/13 12:21:58;;;;;;;1.13;1.00;;;;;;;;;;5034824;28;20068;-70
2023/01/13 12:24:30;;;;;;;1.05;0.90;;;;;;;;;;5034371;28;20061;-70
2023/01/13 12:27:22;;;;;;;1.25;0.90;;;;;;;;;;5034184;28;20107;-70
2023/01/13 12:29:50;;;;;;;2.60;0.95;;;;;;;;;;5021661;28;20172;-70
2023/01/13 12:32:23;;;;;;;1.95;1.00;;;;;;;;;;5034268;28;20038;-70
2023/01/13 12:34:52;;;;;;;1.52;1.00;;;;;;;;;;5044996;28;20037;-70
2023/01/13 12:37:18;;;;;;;1.08;0.85;;;;;;;;;;5032728;28;20555;-70
2023/01/13 12:40:02;;;;;;;2.15;0.70;;;;;;;;;;5033533;28;20087;-70
2023/01/13 12:45:32;;;;;;;2.70;0.60;;;;;;;;;;5049236;28;20048;-72
2023/01/13 12:47:58;;;;;;;2.35;0.88;;;;;;;;;;5034901;28;20041;-70
2023/01/13 12:50:24;;;;;;;0.80;0.57;;;;;;;;;;5035314;28;20048;-72
2023/01/13 12:53:00;;;;;;;2.40;0.93;;;;;;;;;;5051021;28;20053;-71
2023/01/13 12:55:27;;;;;;;1.25;0.85;;;;;;;;;;5052707;28;20040;-71
2023/01/13 12:58:05;;;;;;;2.83;1.10;;;;;;;;;;5014048;28;20511;-70
2023/01/13 13:00:41;;;;;;;3.67;0.90;;;;;;;;;;5028178;28;20500;-70
2023/01/13 13:03:09;;;;;;;2.65;0.90;;;;;;;;;;5050223;28;20120;-72
2023/01/13 13:05:38;;;;;;;0.80;0.70;;;;;;;;;;5046581;28;20048;-72
2023/01/13 13:08:10;;;;;;;1.58;0.80;;;;;;;;;;5045613;28;20076;-72
2023/01/13 13:10:38;;;;;;;2.35;0.60;;;;;;;;;;5053550;28;20052;-72
2023/01/13 13:13:19;;;;;;;4.88;1.30;;;;;;;;;;5044702;28;20077;-71
2023/01/13 13:15:47;;;;;;;4.20;1.50;;;;;;;;;;5045069;28;20094;-73
2023/01/13 13:18:26;;;;;;;1.80;0.93;;;;;;;;;;5037278;28;20508;-73
2023/01/13 13:20:58;;;;;;;3.28;1.60;;;;;;;;;;5034175;28;20037;-72
2023/01/13 13:23:27;;;;;;;4.93;1.48;;;;;;;;;;5037504;28;20045;-74
2023/01/13 13:26:14;;;;;;;2.65;1.30;;;;;;;;;;5038774;28;20120;-74
2023/01/13 13:28:43;;;;;;;3.13;1.05;;;;;;;;;;5038538;28;20049;-74
2023/01/13 13:31:16;;;;;;;3.75;1.02;;;;;;;;;;5038351;28;20517;-74
2023/01/13 13:34:01;;;;;;;6.18;2.40;;;;;;;;;;5038491;28;20519;-74
2023/01/13 13:36:42;;;;;;;4.97;1.50;;;;;;;;;;5037955;28;20037;-74
2023/01/13 13:47:45;;;;;;;3.08;1.33;;;;;;;;;;5053603;28;20117;-75
2023/01/13 13:50:13;;;;;;;3.42;1.38;;;;;;;;;;5038306;28;20124;-74
2023/01/13 13:52:43;;;;;;;2.88;0.90;;;;;;;;;;5044916;28;20053;-75
2023/01/13 13:55:20;;;;;;;3.05;1.10;;;;;;;;;;5055843;28;20087;-75
2023/01/13 13:57:50;;;;;;;3.83;1.50;;;;;;;;;;5055644;28;20496;-75
2023/01/13 14:00:21;;;;;;;5.78;1.92;;;;;;;;;;5057007;28;20079;-74
2023/01/13 14:02:52;;;;;;;2.58;0.90;;;;;;;;;;5047180;28;20037;-74
2023/01/13 14:05:18;;;;;;;;;;;;;;;;;;5042749;28;20075;-73
2023/01/13 14:07:46;;;;;;;2.88;1.30;;;;;;;;;;5036177;28;19909;-77
2023/01/13 14:10:16;;;;;;;4.20;1.40;;;;;;;;;;5041322;28;20044;-74
2023/01/13 14:12:42;;;;;;;7.53;1.45;;;;;;;;;;5051243;28;20053;-73
2023/01/13 14:15:27;;;;;;;4.75;1.20;;;;;;;;;;5037196;28;20045;-73
2023/01/13 14:17:53;;;;;;;3.15;1.55;;;;;;;;;;5036296;28;20040;-73
2023/01/13 14:20:19;;;;;;;5.88;1.92;;;;;;;;;;5046998;28;20041;-75
2023/01/13 14:22:49;;;;;;;4.60;1.30;;;;;;;;;;5046878;28;20066;-73
2023/01/13 14:25:28;;;;;;;3.35;1.10;;;;;;;;;;5054701;28;20130;-74
2023/01/13 14:27:55;;;;;;;2.80;1.00;;;;;;;;;;5032738;28;20075;-74
2023/01/13 14:30:22;;;;;;;2.75;1.25;;;;;;;;;;5032197;28;20148;-75
2023/01/13 14:32:49;;;;;;;4.78;1.10;;;;;;;;;;5035183;28;20056;-74
2023/01/13 14:35:15;;;;;;;2.47;0.98;;;;;;;;;;5035613;28;20080;-74
2023/01/13 14:37:42;;;;;;;4.38;1.40;;;;;;;;;;5035919;28;20041;-74
2023/01/13 14:40:32;;;;;;;4.28;1.35;;;;;;;;;;5036402;28;20045;-74
2023/01/13 14:43:15;;;;;;;3.80;1.48;;;;;;;;;;5030857;28;20404;-74
2023/01/13 14:46:02;;;;;;;7.55;3.22;;;;;;;;;;5035945;28;20072;-74
2023/01/13 14:48:34;;;;;;;1.85;0.90;;;;;;;;;;5054902;28;20037;-73
2023/01/13 14:51:01;;;;;;;2.47;1.25;;;;;;;;;;5055510;28;20045;-73
2023/01/13 14:53:47;;;;;;;3.95;1.20;;;;;;;;;;5054951;28;20056;-73
2023/01/13 14:56:31;;;;;;;2.80;1.08;;;;;;;;;;5053467;28;20488;-74
2023/01/13 14:59:01;;;;;;;5.28;2.42;;;;;;;;;;5036202;28;20037;-73
2023/01/13 15:01:40;;;;;;;7.47;2.03;;;;;;;;;;5039668;28;20033;-74
2023/01/13 15:04:16;;;;;;;5.13;2.03;;;;;;;;;;5036748;28;20051;-74
2023/01/13 15:06:45;;;;;;;2.08;1.10;;;;;;;;;;5052893;28;20036;-74
2023/01/13 15:09:22;;;;;;;4.32;1.67;;;;;;;;;;5034762;28;20128;-73
2023/01/13 15:11:48;;;;;;;2.55;0.90;;;;;;;;;;5035227;28;20072;-73
2023/01/13 15:14:22;;;;;;;1.75;0.82;;;;;;;;;;5035282;28;20053;-72
2023/01/13 15:16:48;;;;;;;4.25;1.42;;;;;;;;;;5036148;28;20041;-72
2023/01/13 15:19:14;;;;;;;5.00;2.13;;;;;;;;;;5034481;28;20041;-72
2023/01/13 15:21:40;;;;;;;5.13;1.70;;;;;;;;;;5037625;28;20503;-72
2023/01/13 15:24:06;;;;;;;7.75;1.77;;;;;;;;;;5043464;28;20052;-72
2023/01/13 15:26:33;;;;;;;6.95;2.42;;;;;;;;;;5055474;28;20043;-71
2023/01/13 15:28:59;;;;;;;2.90;1.10;;;;;;;;;;5039068;28;20045;-72
2023/01/13 15:31:26;;;;;;;4.40;2.17;;;;;;;;;;5037028;28;20064;-72
2023/01/13 15:33:52;;;;;;;2.22;1.48;;;;;;;;;;5038689;28;20132;-72
2023/01/13 15:36:18;;;;;;;3.63;1.20;;;;;;;;;;5045542;28;20029;-72
2023/01/13 15:38:45;;;;;;;8.55;1.83;;;;;;;;;;5049589;28;20072;-72
2023/01/13 15:41:11;;;;;;;6.97;1.83;;;;;;;;;;5037982;28;20041;-71
